Time;durP1;ratioP1;P1;durP2;ratioP2;P2;SDS_P1;SDS_P2;PMS_P1;PMS_P2;Temp;Humidity;BMP_temperature;BMP_pressure;BME280_temperature;BME280_humidity;BME280_pressure;Samples;Min_cycle;Max_cycle;Signal;HPM_P1;HPM_P2
2023/08/30 00:00:14;;;;;;;11.53;10.33;;;14.80;99.90;;;;;;5154784;27;20050;-72
2023/08/30 00:02:39;;;;;;;13.60;11.73;;;14.80;99.90;;;;;;5135994;27;20049;-72
2023/08/30 00:05:05;;;;;;;11.43;10.33;;;14.90;99.90;;;;;;5154673;27;20095;-72
2023/08/30 00:07:31;;;;;;;12.30;10.90;;;14.90;99.90;;;;;;5154525;27;20046;-72
2023/08/30 00:09:58;;;;;;;11.90;10.70;;;14.90;99.90;;;;;;5154821;27;20095;-72
2023/08/30 00:12:24;;;;;;;13.07;11.13;;;15.00;99.90;;;;;;5154583;27;20099;-72
2023/08/30 00:14:50;;;;;;;14.37;11.70;;;15.00;99.90;;;;;;5135969;27;20424;-72
2023/08/30 00:17:16;;;;;;;11.67;10.47;;;15.00;99.90;;;;;;5154564;27;20047;-72
2023/08/30 00:19:42;;;;;;;13.57;11.90;;;15.00;99.90;;;;;;5135722;27;20513;-72
2023/08/30 00:22:07;;;;;;;12.30;11.00;;;15.00;99.90;;;;;;5154488;27;20391;-72
2023/08/30 00:24:34;;;;;;;12.67;11.20;;;15.00;99.90;;;;;;5154187;27;20050;-72
2023/08/30 00:27:01;;;;;;;13.57;11.57;;;14.90;99.90;;;;;;5154453;27;20078;-72
2023/08/30 00:29:28;;;;;;;14.17;10.83;;;14.90;99.90;;;;;;5154322;27;20035;-72
2023/08/30 00:31:54;;;;;;;13.63;11.10;;;14.90;99.90;;;;;;5157829;27;20051;-72
2023/08/30 00:34:20;;;;;;;12.37;11.07;;;14.80;99.90;;;;;;5158759;27;20043;-72
2023/08/30 00:36:45;;;;;;;12.87;11.50;;;14.80;99.90;;;;;;5139724;27;20407;-72
2023/08/30 00:39:11;;;;;;;12.90;11.50;;;14.70;99.90;;;;;;5158454;27;20035;-72
2023/08/30 00:41:37;;;;;;;15.57;11.87;;;14.80;99.90;;;;;;5158110;27;20539;-72
2023/08/30 00:44:03;;;;;;;12.30;11.00;;;14.70;99.90;;;;;;5158336;27;20051;-72
2023/08/30 00:46:29;;;;;;;14.07;11.87;;;14.70;99.90;;;;;;5158256;27;20039;-72
2023/08/30 00:48:55;;;;;;;12.77;11.40;;;14.70;99.90;;;;;;5139576;27;20078;-72
2023/08/30 00:51:21;;;;;;;12.03;10.83;;;14.60;99.90;;;;;;5158304;27;20047;-72
2023/08/30 00:53:48;;;;;;;13.70;10.93;;;14.60;99.90;;;;;;5157913;27;20046;-72
2023/08/30 00:56:15;;;;;;;14.30;10.93;;;14.60;99.90;;;;;;5158195;27;20086;-72
2023/08/30 00:58:41;;;;;;;14.37;11.17;;;14.70;99.90;;;;;;5139638;27;20053;-72
2023/08/30 01:01:08;;;;;;;11.23;9.97;;;14.60;99.90;;;;;;5122853;27;20468;-72
2023/08/30 01:03:34;;;;;;;11.50;10.30;;;14.60;99.90;;;;;;5158018;27;20119;-72
2023/08/30 01:06:00;;;;;;;12.17;10.67;;;14.60;99.90;;;;;;5139476;27;20051;-72
2023/08/30 01:08:27;;;;;;;12.37;10.27;;;14.60;99.90;;;;;;5157843;27;20382;-72
2023/08/30 01:10:59;;;;;;;11.93;10.40;;;14.60;99.90;;;;;;5157445;27;20043;-72
2023/08/30 01:13:27;;;;;;;12.07;10.73;;;14.60;99.90;;;;;;5158085;27;20402;-72
2023/08/30 01:15:54;;;;;;;12.03;10.17;;;14.60;99.90;;;;;;5157507;27;20446;-72
2023/08/30 01:18:26;;;;;;;12.43;10.23;;;14.60;99.90;;;;;;5157672;27;20050;-72
2023/08/30 01:20:53;;;;;;;13.07;10.60;;;14.60;99.90;;;;;;5157646;27;20061;-72
2023/08/30 01:23:49;;;;;;;11.90;10.60;;;14.50;99.90;;;;;;5157681;27;20344;-72
2023/08/30 01:26:59;;;;;;;10.67;9.37;;;14.60;99.90;;;;;;5157544;27;20043;-72
2023/08/30 01:29:26;;;;;;;11.27;9.90;;;14.50;99.90;;;;;;5052980;28;20080;-72
2023/08/30 01:31:53;;;;;;;12.87;10.30;;;14.50;99.90;;;;;;5052868;28;20483;-70
2023/08/30 01:34:19;;;;;;;11.73;10.23;;;14.40;99.90;;;;;;5106893;27;20050;-69
2023/08/30 01:36:45;;;;;;;14.10;11.00;;;14.40;99.90;;;;;;5156982;27;20047;-71
2023/08/30 01:39:12;;;;;;;11.43;10.20;;;14.40;99.90;;;;;;5157288;27;20042;-71
2023/08/30 01:41:39;;;;;;;12.13;10.13;;;14.30;99.90;;;;;;5156042;27;20490;-71
2023/08/30 01:44:07;;;;;;;11.03;9.53;;;14.30;99.90;;;;;;5157028;27;20550;-71
2023/08/30 01:46:34;;;;;;;11.67;10.47;;;14.30;99.90;;;;;;5157158;27;20054;-71
2023/08/30 01:49:06;;;;;;;12.27;9.57;;;14.30;99.90;;;;;;5138499;27;20153;-71
2023/08/30 01:51:33;;;;;;;13.30;10.80;;;14.30;99.90;;;;;;5157063;27;20054;-71
2023/08/30 01:53:59;;;;;;;13.27;10.30;;;14.20;99.90;;;;;;5156704;27;20359;-72
2023/08/30 01:56:25;;;;;;;11.60;9.70;;;14.20;99.90;;;;;;5138507;27;20086;-72
2023/08/30 01:58:50;;;;;;;11.57;10.33;;;14.20;99.90;;;;;;5138419;27;20074;-72
2023/08/30 02:01:16;;;;;;;12.90;10.20;;;14.10;99.90;;;;;;5156867;27;20053;-71
2023/08/30 02:03:45;;;;;;;11.27;10.10;;;14.10;99.90;;;;;;5138282;27;20444;-74
2023/08/30 02:06:22;;;;;;;11.67;9.87;;;14.00;99.90;;;;;;5138264;27;20043;-72
2023/08/30 02:09:06;;;;;;;11.97;9.57;;;14.00;99.90;;;;;;5156477;27;20275;-72
2023/08/30 02:11:35;;;;;;;13.33;9.80;;;13.90;99.90;;;;;;5156710;27;20277;-71
2023/08/30 02:14:04;;;;;;;13.07;10.30;;;14.00;99.90;;;;;;5156350;27;20282;-71
2023/08/30 02:16:31;;;;;;;12.93;9.50;;;13.90;99.90;;;;;;5156851;27;20288;-71
2023/08/30 02:18:57;;;;;;;12.13;9.57;;;13.90;99.90;;;;;;5155996;27;20289;-72
2023/08/30 02:21:24;;;;;;;11.63;9.97;;;13.90;99.90;;;;;;5156740;27;20284;-71
2023/08/30 02:23:51;;;;;;;12.83;9.20;;;13.90;99.90;;;;;;5156207;27;20043;-72
2023/08/30 02:26:19;;;;;;;11.33;9.87;;;13.90;99.90;;;;;;5156677;27;20648;-71
2023/08/30 02:28:45;;;;;;;10.50;9.30;;;13.90;99.90;;;;;;5155959;27;20368;-73
2023/08/30 02:31:11;;;;;;;11.73;9.53;;;13.90;99.90;;;;;;5156293;27;20355;-71
2023/08/30 02:33:37;;;;;;;10.40;9.30;;;13.90;99.90;;;;;;5156545;27;20077;-72
2023/08/30 02:36:03;;;;;;;10.93;9.47;;;13.80;99.90;;;;;;5155835;27;20042;-72
2023/08/30 02:38:29;;;;;;;13.83;9.50;;;13.80;99.90;;;;;;5156077;27;20272;-72
2023/08/30 02:40:55;;;;;;;11.50;9.30;;;13.80;99.90;;;;;;5155756;27;20351;-72
2023/08/30 02:43:21;;;;;;;14.37;9.60;;;13.70;99.90;;;;;;5156020;27;20554;-71
2023/08/30 02:45:47;;;;;;;10.77;9.43;;;13.70;99.90;;;;;;5155697;27;20130;-73
2023/08/30 02:48:14;;;;;;;13.33;9.37;;;13.70;99.90;;;;;;5155879;27;20364;-72
2023/08/30 02:50:40;;;;;;;13.03;9.50;;;13.70;99.90;;;;;;5155870;27;20034;-71
2023/08/30 02:53:08;;;;;;;11.13;9.93;;;13.60;99.90;;;;;;5155365;27;20280;-72
2023/08/30 02:55:35;;;;;;;11.50;9.90;;;13.60;99.90;;;;;;5155772;27;20141;-72
2023/08/30 02:58:01;;;;;;;13.50;9.40;;;13.60;99.90;;;;;;5155551;27;20307;-72
2023/08/30 03:00:26;;;;;;;12.60;9.67;;;13.60;99.90;;;;;;5137468;27;20284;-71
2023/08/30 03:02:52;;;;;;;11.37;9.87;;;13.60;99.90;;;;;;5155015;27;20770;-72
2023/08/30 03:05:18;;;;;;;11.93;10.07;;;13.60;99.90;;;;;;5137306;27;20043;-72
2023/08/30 03:07:44;;;;;;;12.13;10.20;;;13.60;99.90;;;;;;5137120;27;20138;-72
2023/08/30 03:10:11;;;;;;;12.30;10.07;;;13.50;99.90;;;;;;5155193;27;20049;-72
2023/08/30 03:12:37;;;;;;;13.40;10.77;;;13.40;99.90;;;;;;5155532;27;20545;-71
2023/08/30 03:15:04;;;;;;;13.13;10.67;;;13.50;99.90;;;;;;5155128;27;20363;-71
2023/08/30 03:17:29;;;;;;;13.07;11.30;;;13.50;99.90;;;;;;5137179;27;20051;-71
2023/08/30 03:19:55;;;;;;;11.73;10.50;;;13.50;99.90;;;;;;5136351;27;20288;-71
2023/08/30 03:22:21;;;;;;;12.33;10.13;;;13.50;99.90;;;;;;5155295;27;20122;-71
2023/08/30 03:24:47;;;;;;;12.40;10.53;;;13.40;99.90;;;;;;5155267;27;20427;-71
2023/08/30 03:27:13;;;;;;;13.50;10.93;;;13.40;99.90;;;;;;5154944;27;20279;-71
2023/08/30 03:29:38;;;;;;;12.70;11.13;;;13.50;99.90;;;;;;5136526;27;20045;-71
2023/08/30 03:32:05;;;;;;;14.23;10.90;;;13.50;99.90;;;;;;5154804;27;20133;-71
2023/08/30 03:34:30;;;;;;;13.80;10.73;;;13.50;99.90;;;;;;5155096;27;20050;-71
2023/08/30 03:36:56;;;;;;;14.87;11.43;;;13.50;99.90;;;;;;5155041;27;20358;-72
2023/08/30 03:39:23;;;;;;;12.27;11.00;;;13.50;99.90;;;;;;5136480;27;20046;-71
2023/08/30 03:41:49;;;;;;;14.07;10.60;;;13.60;99.90;;;;;;5154952;27;20046;-71
2023/08/30 03:44:15;;;;;;;13.73;10.43;;;13.60;99.90;;;;;;5154708;27;20311;-71
2023/08/30 03:46:41;;;;;;;12.87;10.97;;;13.60;99.90;;;;;;5154873;27;20700;-71
2023/08/30 03:49:07;;;;;;;14.73;11.00;;;13.60;99.90;;;;;;5154526;27;20039;-71
2023/08/30 03:51:32;;;;;;;15.63;10.77;;;13.60;99.90;;;;;;5154818;27;20043;-71
2023/08/30 03:53:58;;;;;;;13.90;11.57;;;13.70;99.90;;;;;;5154456;27;20054;-71
2023/08/30 03:56:24;;;;;;;11.77;10.50;;;13.70;99.90;;;;;;5154978;27;20053;-71
2023/08/30 03:58:49;;;;;;;11.87;10.60;;;13.80;99.90;;;;;;5154764;27;20043;-71
2023/08/30 04:01:15;;;;;;;12.13;10.87;;;13.80;99.90;;;;;;5136220;27;20057;-71
2023/08/30 04:03:41;;;;;;;12.40;10.37;;;13.80;99.90;;;;;;5154719;27;20074;-71
2023/08/30 04:06:07;;;;;;;12.97;11.33;;;13.80;99.90;;;;;;5135577;27;20133;-71
2023/08/30 04:08:33;;;;;;;14.57;10.60;;;13.80;99.90;;;;;;5154844;27;20049;-71
2023/08/30 04:10:59;;;;;;;12.53;11.23;;;13.80;99.90;;;;;;5154360;27;20053;-71
2023/08/30 04:13:25;;;;;;;11.47;10.07;;;13.80;99.90;;;;;;5119362;27;20302;-71
2023/08/30 04:15:51;;;;;;;12.37;11.00;;;13.80;99.90;;;;;;5154518;27;20759;-71
2023/08/30 04:18:17;;;;;;;12.13;10.93;;;13.80;99.90;;;;;;5154338;27;20279;-71
2023/08/30 04:20:46;;;;;;;13.70;11.33;;;13.80;99.90;;;;;;5154091;27;20744;-71
2023/08/30 04:23:13;;;;;;;11.97;10.70;;;13.80;99.90;;;;;;5154187;27;20039;-70
2023/08/30 04:25:38;;;;;;;14.17;11.67;;;13.80;99.90;;;;;;5136203;27;20045;-71
2023/08/30 04:28:04;;;;;;;13.53;10.87;;;13.90;99.90;;;;;;5153937;27;20129;-71
2023/08/30 04:30:30;;;;;;;11.97;10.17;;;13.90;99.90;;;;;;5136225;27;20153;-71
2023/08/30 04:32:56;;;;;;;12.67;10.50;;;13.90;99.90;;;;;;5154410;27;20039;-71
2023/08/30 04:35:22;;;;;;;15.23;11.37;;;13.90;99.90;;;;;;5135916;27;20045;-71
2023/08/30 04:37:51;;;;;;;13.27;10.43;;;14.00;99.90;;;;;;5154373;27;20053;-71
2023/08/30 04:40:16;;;;;;;12.70;10.70;;;14.00;99.90;;;;;;5154159;27;20087;-72
2023/08/30 04:42:43;;;;;;;12.63;10.40;;;14.00;99.90;;;;;;5119081;27;20284;-71
2023/08/30 04:45:09;;;;;;;12.23;10.10;;;14.00;99.90;;;;;;5154041;27;20038;-71
2023/08/30 04:47:35;;;;;;;12.70;10.50;;;13.90;99.90;;;;;;5154244;27;20276;-71
2023/08/30 04:50:01;;;;;;;15.20;10.60;;;14.00;99.90;;;;;;5153885;27;20296;-73
2023/08/30 04:52:27;;;;;;;11.60;10.30;;;14.00;99.90;;;;;;5154244;27;20051;-71
2023/08/30 04:54:53;;;;;;;13.73;9.93;;;14.00;99.90;;;;;;5136023;27;20042;-72
2023/08/30 04:57:18;;;;;;;11.43;10.23;;;14.00;99.90;;;;;;5153921;27;20054;-71
2023/08/30 04:59:45;;;;;;;13.30;10.40;;;14.00;99.90;;;;;;5136000;27;20096;-71
2023/08/30 05:02:11;;;;;;;15.00;11.03;;;14.00;99.90;;;;;;5153582;27;20502;-71
2023/08/30 05:04:36;;;;;;;13.23;10.27;;;14.00;99.90;;;;;;5154132;27;20319;-71
2023/08/30 05:07:03;;;;;;;13.43;11.00;;;14.00;99.90;;;;;;5135875;27;20051;-73
2023/08/30 05:09:30;;;;;;;12.47;11.07;;;14.10;99.90;;;;;;5154364;27;20084;-71
2023/08/30 05:11:56;;;;;;;12.23;10.57;;;14.00;99.90;;;;;;5135788;27;20046;-71
2023/08/30 05:14:21;;;;;;;13.93;10.80;;;14.10;99.90;;;;;;5153701;27;20287;-71
2023/08/30 05:16:51;;;;;;;11.20;9.87;;;14.10;99.90;;;;;;5154017;27;20049;-71
2023/08/30 05:19:17;;;;;;;14.30;10.97;;;14.10;99.90;;;;;;5157448;27;20046;-71
2023/08/30 05:21:43;;;;;;;13.97;10.47;;;14.10;99.90;;;;;;5157623;27;20278;-71
2023/08/30 05:24:10;;;;;;;13.93;11.40;;;14.20;99.90;;;;;;5157354;27;20042;-72
2023/08/30 05:26:36;;;;;;;16.77;10.93;;;14.20;99.90;;;;;;5157523;27;20291;-71
2023/08/30 05:29:02;;;;;;;12.83;10.60;;;14.10;99.90;;;;;;5157376;27;20276;-71
2023/08/30 05:31:28;;;;;;;13.40;11.13;;;14.10;99.90;;;;;;5138873;27;20276;-71
2023/08/30 05:33:54;;;;;;;16.07;11.17;;;14.10;99.90;;;;;;5157380;27;20046;-71
2023/08/30 05:36:19;;;;;;;12.17;10.60;;;14.20;99.90;;;;;;5157016;27;20368;-71
2023/08/30 05:38:45;;;;;;;14.50;10.07;;;14.20;99.90;;;;;;5138904;27;20078;-71
2023/08/30 05:41:11;;;;;;;12.27;10.23;;;14.20;99.90;;;;;;5157028;27;20117;-72
2023/08/30 05:43:36;;;;;;;13.27;10.97;;;14.20;99.90;;;;;;5157244;27;20101;-71
2023/08/30 05:46:02;;;;;;;13.13;10.57;;;14.20;99.90;;;;;;5138389;27;20043;-71
2023/08/30 05:48:32;;;;;;;13.13;11.27;;;14.30;99.90;;;;;;5156574;27;20471;-71
2023/08/30 05:50:58;;;;;;;13.53;11.00;;;14.30;99.90;;;;;;5156707;27;20478;-71
2023/08/30 05:53:24;;;;;;;15.77;11.27;;;14.30;99.90;;;;;;5156490;27;20309;-71
2023/08/30 05:55:49;;;;;;;13.37;10.77;;;14.30;99.90;;;;;;5156967;27;20035;-71
2023/08/30 05:58:17;;;;;;;12.57;11.27;;;14.30;99.90;;;;;;5157115;27;20050;-71
2023/08/30 06:00:43;;;;;;;11.77;10.57;;;14.30;99.90;;;;;;5138631;27;20534;-71
2023/08/30 06:03:10;;;;;;;12.73;10.10;;;14.40;99.90;;;;;;5156832;27;20047;-75
2023/08/30 06:05:36;;;;;;;12.37;10.50;;;14.40;99.90;;;;;;5156797;27;20051;-72
2023/08/30 06:08:02;;;;;;;13.97;10.60;;;14.40;99.90;;;;;;5156432;27;20043;-72
2023/08/30 06:10:28;;;;;;;13.30;10.40;;;14.40;99.90;;;;;;5156338;27;20079;-72
2023/08/30 06:12:53;;;;;;;14.17;10.80;;;14.40;99.90;;;;;;5156718;27;20047;-72
2023/08/30 06:15:19;;;;;;;15.53;10.00;;;14.40;99.90;;;;;;5138107;27;20284;-72
2023/08/30 06:17:46;;;;;;;13.90;11.33;;;14.50;99.90;;;;;;5156555;27;20137;-72
2023/08/30 06:20:12;;;;;;;12.73;10.03;;;14.50;99.90;;;;;;5156188;27;20134;-72
2023/08/30 06:22:38;;;;;;;12.87;9.67;;;14.50;99.90;;;;;;5138014;27;20280;-72
2023/08/30 06:25:06;;;;;;;13.43;10.67;;;14.50;99.90;;;;;;5138132;27;20366;-71
2023/08/30 06:27:32;;;;;;;15.43;10.37;;;14.50;99.90;;;;;;5155905;27;20082;-72
2023/08/30 06:29:58;;;;;;;12.10;9.87;;;14.50;99.90;;;;;;5137655;27;20334;-71
2023/08/30 06:32:24;;;;;;;13.77;10.07;;;14.60;99.90;;;;;;5156079;27;20086;-72
2023/08/30 06:34:49;;;;;;;12.93;10.77;;;14.60;99.90;;;;;;5137980;27;20095;-72
2023/08/30 06:37:15;;;;;;;12.33;9.93;;;14.60;99.90;;;;;;5137710;27;20479;-72
2023/08/30 06:39:41;;;;;;;13.80;10.03;;;14.70;99.90;;;;;;5156195;27;20046;-71
2023/08/30 06:42:07;;;;;;;11.33;9.67;;;14.70;99.90;;;;;;5156072;27;20039;-72
2023/08/30 06:44:33;;;;;;;12.63;9.83;;;14.70;99.90;;;;;;5155724;27;20050;-72
2023/08/30 06:46:58;;;;;;;12.90;10.63;;;14.80;99.90;;;;;;5155987;27;20049;-72
2023/08/30 06:49:24;;;;;;;13.97;10.30;;;14.90;99.90;;;;;;5155514;27;20073;-72
2023/08/30 06:51:50;;;;;;;14.43;10.33;;;14.90;99.90;;;;;;5156034;27;20084;-71
2023/08/30 06:54:16;;;;;;;13.03;9.70;;;15.00;99.90;;;;;;5155322;27;20494;-72
2023/08/30 06:56:56;;;;;;;13.77;11.00;;;15.10;99.90;;;;;;5137116;27;20041;-72
2023/08/30 06:59:22;;;;;;;15.83;10.33;;;15.20;99.90;;;;;;5137335;27;20054;-73
2023/08/30 07:01:47;;;;;;;12.33;9.47;;;15.30;99.90;;;;;;5137304;27;20379;-73
2023/08/30 07:04:13;;;;;;;13.07;9.77;;;15.40;99.90;;;;;;5155661;27;20042;-73
2023/08/30 07:06:39;;;;;;;12.27;9.77;;;15.50;99.90;;;;;;5136814;27;20051;-73
2023/08/30 07:09:06;;;;;;;12.33;9.33;;;15.60;99.90;;;;;;5137247;27;20133;-73
2023/08/30 07:11:32;;;;;;;15.60;10.40;;;15.70;99.90;;;;;;5137179;27;20097;-74
2023/08/30 07:13:57;;;;;;;15.77;9.50;;;16.10;99.90;;;;;;5155426;27;20422;-74
2023/08/30 07:16:23;;;;;;;12.53;9.57;;;16.60;99.90;;;;;;5155091;27;20038;-74
2023/08/30 07:18:50;;;;;;;13.57;9.20;;;17.40;99.90;;;;;;5137329;27;20074;-74
2023/08/30 07:21:15;;;;;;;11.20;8.70;;;18.20;99.90;;;;;;5102525;27;20061;-72
2023/08/30 07:23:41;;;;;;;11.70;8.47;;;18.90;99.90;;;;;;5119511;27;20050;-72
2023/08/30 07:26:07;;;;;;;11.00;8.87;;;19.60;99.90;;;;;;5137159;27;20121;-72
2023/08/30 07:28:33;;;;;;;10.23;8.00;;;20.10;99.90;;;;;;5136428;27;20483;-73
2023/08/30 07:31:05;;;;;;;11.33;8.53;;;20.20;99.90;;;;;;5155175;27;20042;-73
2023/08/30 07:33:31;;;;;;;10.37;7.90;;;20.20;99.90;;;;;;5136333;27;20051;-73
2023/08/30 07:35:56;;;;;;;10.33;7.20;;;20.10;99.90;;;;;;5155050;27;20042;-73
2023/08/30 07:38:22;;;;;;;10.47;8.03;;;19.90;99.90;;;;;;5136277;27;20050;-73
2023/08/30 07:40:48;;;;;;;10.43;7.73;;;19.50;99.90;;;;;;5154124;27;20066;-73
2023/08/30 07:43:14;;;;;;;10.17;7.60;;;19.30;99.90;;;;;;5155003;27;20410;-73
2023/08/30 07:45:39;;;;;;;10.73;6.97;;;19.00;99.90;;;;;;5136283;27;20803;-73
2023/08/30 07:48:05;;;;;;;9.83;6.47;;;18.80;99.90;;;;;;5136840;27;20075;-73
2023/08/30 07:50:31;;;;;;;8.53;6.70;;;18.70;99.90;;;;;;5119044;27;20558;-73
2023/08/30 07:52:57;;;;;;;8.33;5.87;;;18.90;99.90;;;;;;5102305;27;20039;-72
2023/08/30 07:55:22;;;;;;;8.50;6.50;;;19.10;99.90;;;;;;5119199;27;20076;-73
2023/08/30 07:57:48;;;;;;;9.33;5.90;;;19.10;99.90;;;;;;5119462;27;20042;-71
2023/08/30 08:00:14;;;;;;;10.50;6.03;;;19.00;99.90;;;;;;5154702;27;20043;-72
2023/08/30 08:02:40;;;;;;;8.27;6.03;;;18.90;99.90;;;;;;5154443;27;20058;-71
2023/08/30 08:05:06;;;;;;;7.97;6.20;;;18.70;99.90;;;;;;5154747;27;20065;-73
2023/08/30 08:07:32;;;;;;;8.77;6.77;;;18.70;99.90;;;;;;5135784;27;20447;-73
2023/08/30 08:09:58;;;;;;;8.73;6.27;;;18.50;99.90;;;;;;5136167;27;20050;-72
2023/08/30 08:12:24;;;;;;;10.97;7.70;;;18.50;99.90;;;;;;5136169;27;20046;-74
2023/08/30 08:14:49;;;;;;;9.20;7.00;;;18.50;99.90;;;;;;5154642;27;20066;-72
2023/08/30 08:17:15;;;;;;;11.87;7.53;;;18.50;99.90;;;;;;5154713;27;20053;-72
2023/08/30 08:19:42;;;;;;;10.07;8.00;;;18.40;99.90;;;;;;5118570;27;20082;-72
2023/08/30 08:22:08;;;;;;;10.00;7.80;;;18.50;99.90;;;;;;5102428;27;20137;-72
2023/08/30 08:24:34;;;;;;;9.13;7.20;;;18.40;99.90;;;;;;5154359;27;20051;-73
2023/08/30 08:27:01;;;;;;;12.23;8.27;;;18.40;99.90;;;;;;5119153;27;20498;-73
2023/08/30 08:29:29;;;;;;;12.67;8.07;;;18.30;99.90;;;;;;5135940;27;20043;-74
2023/08/30 08:31:55;;;;;;;11.27;8.10;;;18.20;99.90;;;;;;5136444;27;20050;-73
2023/08/30 08:34:21;;;;;;;11.07;7.50;;;18.10;99.90;;;;;;5136344;27;20193;-74
2023/08/30 08:36:47;;;;;;;11.33;7.60;;;18.00;99.90;;;;;;5154264;27;20057;-75
2023/08/30 08:39:14;;;;;;;11.13;7.97;;;17.90;99.90;;;;;;5102280;27;20043;-74
2023/08/30 08:41:44;;;;;;;12.73;7.93;;;17.70;99.90;;;;;;5118827;27;20371;-75
2023/08/30 08:44:11;;;;;;;11.13;7.83;;;17.60;99.90;;;;;;5154165;27;20039;-72
2023/08/30 08:46:38;;;;;;;9.50;7.63;;;17.60;99.90;;;;;;5154031;27;20047;-74
2023/08/30 08:49:31;;;;;;;9.73;8.00;;;17.50;99.90;;;;;;5154457;27;20047;-73
2023/08/30 08:51:57;;;;;;;12.17;8.07;;;17.40;99.90;;;;;;5132989;27;20093;-73
2023/08/30 08:54:23;;;;;;;11.97;8.20;;;17.40;99.90;;;;;;5158186;27;20043;-74
2023/08/30 08:56:49;;;;;;;10.20;7.50;;;17.40;99.90;;;;;;5139310;27;20050;-70
2023/08/30 08:59:15;;;;;;;11.93;8.20;;;17.40;99.90;;;;;;5158215;27;20051;-68
2023/08/30 09:01:41;;;;;;;12.57;8.20;;;17.40;99.90;;;;;;5157872;27;20102;-69
2023/08/30 09:04:08;;;;;;;11.30;8.43;;;17.40;99.90;;;;;;5157985;27;20042;-70
2023/08/30 09:06:35;;;;;;;11.10;8.17;;;17.40;99.90;;;;;;5157655;27;20052;-70
2023/08/30 09:09:03;;;;;;;11.10;7.93;;;17.40;99.90;;;;;;5157904;27;20102;-71
2023/08/30 09:11:29;;;;;;;11.07;8.03;;;17.40;99.90;;;;;;5157903;27;20162;-70
2023/08/30 09:13:55;;;;;;;12.83;8.27;;;17.40;99.90;;;;;;5139243;27;20046;-70
2023/08/30 09:16:21;;;;;;;12.43;7.90;;;17.30;99.90;;;;;;5139496;27;20072;-70
2023/08/30 09:19:01;;;;;;;9.17;7.43;;;17.30;99.90;;;;;;5121905;27;20072;-72
2023/08/30 09:21:27;;;;;;;10.10;7.97;;;17.40;99.90;;;;;;5157731;27;20488;-69
2023/08/30 09:24:06;;;;;;;11.47;8.90;;;17.30;99.90;;;;;;5157399;27;20390;-69
2023/08/30 09:26:38;;;;;;;10.93;7.43;;;17.30;99.90;;;;;;5157543;27;20439;-70
2023/08/30 09:29:08;;;;;;;9.57;6.97;;;17.30;99.90;;;;;;5139365;27;20525;-70
2023/08/30 09:31:39;;;;;;;14.30;8.33;;;17.30;99.90;;;;;;5157158;27;20137;-68
2023/08/30 09:34:05;;;;;;;10.67;8.00;;;17.30;99.90;;;;;;5157790;27;20047;-71
2023/08/30 09:36:38;;;;;;;12.73;8.37;;;17.20;99.90;;;;;;5139133;27;20039;-73
2023/08/30 09:39:12;;;;;;;10.83;8.77;;;17.20;99.90;;;;;;5157647;27;20054;-72
2023/08/30 09:41:45;;;;;;;12.37;8.63;;;17.10;99.90;;;;;;5138699;27;20056;-72
2023/08/30 09:44:24;;;;;;;11.87;8.60;;;17.10;99.90;;;;;;5157486;27;20042;-73
2023/08/30 09:46:55;;;;;;;11.53;8.60;;;17.00;99.90;;;;;;5157063;27;20047;-74
2023/08/30 09:49:25;;;;;;;11.63;8.63;;;17.00;99.90;;;;;;5157306;27;20089;-74
2023/08/30 09:51:52;;;;;;;9.97;7.70;;;16.90;99.90;;;;;;5156776;27;20531;-74
2023/08/30 09:54:19;;;;;;;10.23;7.43;;;16.80;99.90;;;;;;5138808;27;20043;-74
2023/08/30 09:56:46;;;;;;;11.70;6.90;;;16.80;99.90;;;;;;5156465;27;20042;-72
2023/08/30 09:59:15;;;;;;;10.90;7.93;;;16.80;99.90;;;;;;5157241;27;20050;-72
2023/08/30 10:01:43;;;;;;;8.50;6.50;;;16.80;99.90;;;;;;5156748;27;20091;-74
2023/08/30 10:04:09;;;;;;;10.77;7.47;;;16.80;99.90;;;;;;5156120;27;20102;-67
2023/08/30 10:06:39;;;;;;;10.73;7.03;;;16.80;99.90;;;;;;5156839;27;20082;-75
2023/08/30 10:09:07;;;;;;;11.23;7.17;;;16.80;99.90;;;;;;5156728;27;20050;-73
2023/08/30 10:11:35;;;;;;;10.47;7.53;;;16.90;99.90;;;;;;5156708;27;20038;-75
2023/08/30 10:14:05;;;;;;;10.70;7.03;;;16.90;99.90;;;;;;5156431;27;20125;-74
2023/08/30 10:16:37;;;;;;;9.60;6.67;;;17.00;99.90;;;;;;5138217;27;20046;-73
2023/08/30 10:19:09;;;;;;;9.50;6.40;;;17.10;99.90;;;;;;5156754;27;20053;-74
2023/08/30 10:21:36;;;;;;;10.50;7.07;;;17.10;99.90;;;;;;5156626;27;20107;-73
2023/08/30 10:24:03;;;;;;;9.37;6.70;;;17.20;99.90;;;;;;5137976;27;20092;-73
2023/08/30 10:26:30;;;;;;;9.30;6.23;;;17.20;99.90;;;;;;5156409;27;20047;-74
2023/08/30 10:28:57;;;;;;;8.60;6.23;;;17.20;99.90;;;;;;5156068;27;20046;-74
2023/08/30 10:31:23;;;;;;;9.87;5.87;;;17.20;99.90;;;;;;5156249;27;20122;-74
2023/08/30 10:33:53;;;;;;;7.93;5.57;;;17.20;99.90;;;;;;5137759;27;20138;-74
2023/08/30 10:36:26;;;;;;;9.17;6.10;;;17.20;99.90;;;;;;5138049;27;20053;-74
2023/08/30 10:38:53;;;;;;;9.00;6.10;;;17.20;99.90;;;;;;5156111;27;20054;-74
2023/08/30 10:41:24;;;;;;;8.83;6.37;;;17.10;99.90;;;;;;5137859;27;20374;-73
2023/08/30 10:43:55;;;;;;;8.23;5.33;;;17.20;99.90;;;;;;5155914;27;20048;-74
2023/08/30 10:46:34;;;;;;;8.27;5.27;;;17.30;99.90;;;;;;5137493;27;20051;-74
2023/08/30 10:49:11;;;;;;;6.97;4.53;;;17.40;99.90;;;;;;5137526;27;20047;-75
2023/08/30 10:51:38;;;;;;;7.77;4.40;;;17.50;99.90;;;;;;5137816;27;20046;-72
2023/08/30 10:54:18;;;;;;;7.27;4.40;;;17.60;99.90;;;;;;5137266;27;20042;-73
2023/08/30 10:56:58;;;;;;;6.70;3.70;;;17.70;99.90;;;;;;5155770;27;20152;-67
2023/08/30 10:59:24;;;;;;;9.83;4.37;;;17.70;99.90;;;;;;5156064;27;20431;-67
2023/08/30 11:01:55;;;;;;;5.97;3.80;;;17.80;99.90;;;;;;5136947;27;20107;-68
2023/08/30 11:04:22;;;;;;;7.03;3.93;;;17.90;99.90;;;;;;5155730;27;20058;-68
2023/08/30 11:06:49;;;;;;;5.80;3.60;;;18.00;99.90;;;;;;5155307;27;20051;-68
2023/08/30 11:09:23;;;;;;;5.87;3.90;;;18.00;99.90;;;;;;5155149;27;20121;-75
2023/08/30 11:11:50;;;;;;;6.80;4.07;;;18.10;99.90;;;;;;5136638;27;20129;-73
2023/08/30 11:14:18;;;;;;;5.67;3.60;;;18.20;99.90;;;;;;5119889;27;20097;-72
2023/08/30 11:16:45;;;;;;;6.50;4.47;;;18.20;99.90;;;;;;5137250;27;20051;-71
2023/08/30 11:19:11;;;;;;;7.43;4.73;;;18.20;99.90;;;;;;5155142;27;20126;-72
2023/08/30 11:21:45;;;;;;;9.20;5.00;;;18.10;99.90;;;;;;5137210;27;20418;-72
2023/08/30 11:24:12;;;;;;;6.37;4.97;;;18.10;99.90;;;;;;5136940;27;20125;-72
2023/08/30 11:26:37;;;;;;;8.00;5.17;;;18.00;99.90;;;;;;5137180;27;20134;-71
2023/08/30 11:29:07;;;;;;;7.33;5.27;;;17.90;99.90;;;;;;5119568;27;20130;-72
2023/08/30 11:31:33;;;;;;;9.73;5.07;;;17.90;99.90;;;;;;5155324;27;20122;-71
2023/08/30 11:34:00;;;;;;;6.90;5.13;;;17.90;99.90;;;;;;5154869;27;20042;-71
2023/08/30 11:36:31;;;;;;;6.87;5.10;;;17.90;99.90;;;;;;5155185;27;20050;-71
2023/08/30 11:38:57;;;;;;;7.57;5.50;;;17.80;99.90;;;;;;5154762;27;20073;-71
2023/08/30 11:41:24;;;;;;;6.27;4.87;;;17.70;99.90;;;;;;5120037;27;20073;-71
2023/08/30 11:43:53;;;;;;;6.83;4.63;;;17.70;99.90;;;;;;5154669;27;20050;-72
2023/08/30 11:46:21;;;;;;;8.83;5.00;;;17.80;99.90;;;;;;5154925;27;20042;-72
2023/08/30 11:48:49;;;;;;;10.37;5.57;;;17.80;99.90;;;;;;5136507;27;20058;-72
2023/08/30 11:51:16;;;;;;;7.73;5.50;;;17.90;99.90;;;;;;5136207;27;20482;-71
2023/08/30 11:53:42;;;;;;;6.67;5.30;;;17.80;99.90;;;;;;5154746;27;20046;-71
2023/08/30 11:56:08;;;;;;;8.53;5.30;;;17.80;99.90;;;;;;5154521;27;20114;-73
2023/08/30 11:58:37;;;;;;;7.10;5.20;;;17.70;99.90;;;;;;5154878;27;20046;-74
2023/08/30 12:01:07;;;;;;;7.40;5.80;;;17.70;99.90;;;;;;5136263;27;20093;-75
2023/08/30 12:03:33;;;;;;;6.17;4.97;;;17.60;99.90;;;;;;5152596;27;20042;-76
2023/08/30 12:05:59;;;;;;;7.50;5.40;;;17.60;99.90;;;;;;5131657;27;20051;-72
2023/08/30 12:08:31;;;;;;;7.00;5.50;;;17.60;99.90;;;;;;5153185;27;20431;-75
2023/08/30 12:10:58;;;;;;;6.73;5.27;;;17.50;99.90;;;;;;5151760;27;20045;-75
2023/08/30 12:13:28;;;;;;;9.53;5.40;;;17.50;99.90;;;;;;5153753;27;20453;-72
2023/08/30 12:15:55;;;;;;;10.00;5.60;;;17.50;99.90;;;;;;5143235;27;20126;-72
2023/08/30 12:18:32;;;;;;;8.93;6.17;;;17.50;99.90;;;;;;5151096;27;20039;-74
2023/08/30 12:21:00;;;;;;;7.87;6.13;;;17.40;99.90;;;;;;5151898;27;20157;-74
2023/08/30 12:23:27;;;;;;;11.90;5.77;;;17.40;99.90;;;;;;5135029;27;20047;-73
2023/08/30 12:26:01;;;;;;;9.73;6.33;;;17.40;99.90;;;;;;5134206;27;20051;-76
2023/08/30 12:28:28;;;;;;;9.23;6.07;;;17.30;99.90;;;;;;5157707;27;20038;-74
2023/08/30 12:30:55;;;;;;;11.20;7.47;;;17.30;99.90;;;;;;5155490;27;20047;-74
2023/08/30 12:33:21;;;;;;;8.73;6.60;;;17.20;99.90;;;;;;5138947;27;20039;-74
2023/08/30 12:35:47;;;;;;;9.43;6.70;;;17.10;99.90;;;;;;5157040;27;20078;-74